createdAt,value
2018-08-20T00:01:13.312Z,1.00
2018-08-20T00:03:50.274Z,1.00
2018-08-20T00:06:22.314Z,1.00
2018-08-20T00:08:54.750Z,1.00
2018-08-20T00:11:27.122Z,1.00
2018-08-20T00:13:59.342Z,1.00
2018-08-20T00:16:32.646Z,1.00
2018-08-20T00:19:05.025Z,1.00
2018-08-20T00:21:37.344Z,1.00
2018-08-20T00:24:09.604Z,1.00
2018-08-20T00:26:42.047Z,1.00
2018-08-20T00:29:14.559Z,1.00
2018-08-20T00:31:46.763Z,1.00
2018-08-20T00:34:19.261Z,1.00
2018-08-20T00:36:52.305Z,1.00
2018-08-20T00:39:24.801Z,1.00
2018-08-20T00:41:56.916Z,1.00
2018-08-20T00:44:30.534Z,1.00
2018-08-20T00:47:03.106Z,1.00
2018-08-20T00:49:35.704Z,1.00
2018-08-20T00:52:08.179Z,1.00
2018-08-20T00:54:41.052Z,1.00
2018-08-20T00:57:13.774Z,1.00
2018-08-20T00:59:46.190Z,1.00
2018-08-20T01:02:23.289Z,1.00
2018-08-20T01:04:56.088Z,1.00
2018-08-20T01:07:29.065Z,1.00
2018-08-20T01:10:01.215Z,1.00
2018-08-20T01:12:33.567Z,1.00
2018-08-20T01:15:06.419Z,1.30
2018-08-20T01:17:38.734Z,1.60
2018-08-20T01:20:11.119Z,1.70
2018-08-20T01:22:43.561Z,2.10
2018-08-20T01:27:52.763Z,2.70
2018-08-20T01:30:25.320Z,2.80
2018-08-20T01:33:16.928Z,3.00
2018-08-20T01:35:49.846Z,2.80
2018-08-20T01:38:22.441Z,3.00
2018-08-20T01:40:54.778Z,2.80
2018-08-20T01:43:26.969Z,3.10
2018-08-20T01:45:59.548Z,3.00
2018-08-20T01:48:31.873Z,3.00
2018-08-20T01:51:04.561Z,2.90
2018-08-20T01:53:37.200Z,3.20
2018-08-20T01:56:09.705Z,3.20
2018-08-20T01:58:42.090Z,3.60
2018-08-20T02:01:14.243Z,4.10
2018-08-20T02:03:46.540Z,4.30
2018-08-20T02:06:19.012Z,4.90
2018-08-20T02:08:51.661Z,5.30
2018-08-20T02:11:25.089Z,5.80
2018-08-20T02:13:57.753Z,6.10
2018-08-20T02:16:29.876Z,6.20
2018-08-20T02:19:02.278Z,6.70
2018-08-20T02:21:38.215Z,7.10
2018-08-20T02:24:10.533Z,7.30
2018-08-20T02:26:43.402Z,7.70
2018-08-20T02:29:16.019Z,8.70
2018-08-20T02:31:48.673Z,8.00
2018-08-20T02:34:21.429Z,8.00
2018-08-20T02:36:54.048Z,8.10
2018-08-20T02:39:26.420Z,8.10
2018-08-20T02:41:58.964Z,8.90
2018-08-20T02:44:31.324Z,8.60
2018-08-20T02:47:03.980Z,9.00
2018-08-20T02:49:36.456Z,9.10
2018-08-20T02:52:09.384Z,9.10
2018-08-20T02:54:41.697Z,9.40
2018-08-20T02:57:13.861Z,9.60
2018-08-20T02:59:46.225Z,10.10
2018-08-20T03:02:18.397Z,10.20
2018-08-20T03:04:50.924Z,10.40
2018-08-20T03:07:23.351Z,10.80
2018-08-20T03:09:55.840Z,11.10
2018-08-20T03:12:28.518Z,11.30
2018-08-20T03:15:00.906Z,11.70
2018-08-20T03:17:33.046Z,11.90
2018-08-20T03:20:05.769Z,12.10
2018-08-20T03:22:38.360Z,12.90
2018-08-20T03:25:10.832Z,12.90
2018-08-20T03:27:43.558Z,12.90
2018-08-20T03:30:16.006Z,13.40
2018-08-20T03:32:48.597Z,13.70
2018-08-20T03:35:21.185Z,14.00
2018-08-20T03:37:53.715Z,14.40
2018-08-20T03:40:25.709Z,14.90
2018-08-20T03:42:58.212Z,15.10
2018-08-20T03:45:30.720Z,15.30
2018-08-20T03:48:03.256Z,15.50
2018-08-20T03:50:35.806Z,15.80
2018-08-20T03:53:09.076Z,15.80
2018-08-20T03:55:41.554Z,15.90
2018-08-20T03:58:13.798Z,15.90
2018-08-20T04:00:46.759Z,16.70
2018-08-20T04:03:18.842Z,16.80
2018-08-20T04:05:51.211Z,17.00
2018-08-20T04:08:23.978Z,17.30
2018-08-20T04:10:56.697Z,17.60
2018-08-20T04:13:29.189Z,17.40
2018-08-20T04:16:03.511Z,17.40
2018-08-20T04:18:35.828Z,17.80
2018-08-20T04:21:08.316Z,18.40
2018-08-20T04:23:41.136Z,18.40
2018-08-20T04:26:13.835Z,18.50
2018-08-20T04:28:46.953Z,18.90
2018-08-20T04:31:20.018Z,18.90
2018-08-20T04:33:52.533Z,19.00
2018-08-20T04:36:25.052Z,19.90
2018-08-20T04:38:58.094Z,19.50
2018-08-20T04:41:30.592Z,19.50
2018-08-20T04:50:52.699Z,19.80
2018-08-20T04:53:24.982Z,20.10
2018-08-20T04:55:57.578Z,20.50
2018-08-20T04:58:30.050Z,20.40
2018-08-20T05:01:02.681Z,20.60
2018-08-20T05:03:35.149Z,20.70
2018-08-20T05:06:07.908Z,20.80
2018-08-20T05:08:40.415Z,21.10
2018-08-20T05:11:12.879Z,21.10
2018-08-20T05:13:45.445Z,21.60
2018-08-20T05:16:17.983Z,21.90
2018-08-20T05:18:50.632Z,21.90
2018-08-20T05:21:23.019Z,22.10
2018-08-20T05:23:55.138Z,22.30
2018-08-20T05:26:27.464Z,22.60
2018-08-20T05:29:00.153Z,22.70
2018-08-20T05:31:32.829Z,23.00
2018-08-20T05:34:06.649Z,23.40
2018-08-20T05:36:39.183Z,23.40
2018-08-20T05:39:12.753Z,23.80
2018-08-20T05:41:45.509Z,23.80
2018-08-20T05:44:17.996Z,24.00
2018-08-20T05:46:50.376Z,24.00
2018-08-20T05:49:23.000Z,23.90
2018-08-20T05:51:55.241Z,24.00
2018-08-20T05:54:27.878Z,24.40
2018-08-20T05:57:00.541Z,24.30
2018-08-20T05:59:32.928Z,24.30
2018-08-20T06:02:05.917Z,24.60
2018-08-20T06:04:38.502Z,24.80
2018-08-20T06:07:11.141Z,24.70
2018-08-20T06:09:43.064Z,25.00
2018-08-20T06:12:15.117Z,24.90
2018-08-20T06:14:47.437Z,25.00
2018-08-20T06:17:20.067Z,25.10
2018-08-20T06:19:52.379Z,25.10
2018-08-20T06:22:24.644Z,25.20
2018-08-20T06:24:57.212Z,25.10
2018-08-20T06:27:29.411Z,25.30
2018-08-20T06:30:01.696Z,25.20
2018-08-20T06:32:34.342Z,25.60
2018-08-20T06:35:07.409Z,25.60
2018-08-20T06:37:40.257Z,25.70
2018-08-20T06:40:15.780Z,25.90
2018-08-20T06:42:48.182Z,25.50
2018-08-20T06:45:20.521Z,25.80
2018-08-20T06:47:52.921Z,26.40
2018-08-20T06:50:25.716Z,26.10
2018-08-20T06:52:58.333Z,26.40
2018-08-20T06:55:30.943Z,26.80
2018-08-20T06:58:04.378Z,26.90
2018-08-20T07:00:37.281Z,27.20
2018-08-20T07:03:10.003Z,27.00
2018-08-20T07:05:42.233Z,27.20
2018-08-20T07:08:14.508Z,27.30
2018-08-20T07:10:48.952Z,27.10
2018-08-20T07:13:29.246Z,27.50
2018-08-20T07:16:01.967Z,28.30
2018-08-20T07:18:34.407Z,28.60
2018-08-20T07:21:07.022Z,28.80
2018-08-20T07:23:39.423Z,28.40
2018-08-20T07:26:11.969Z,28.90
2018-08-20T07:28:44.293Z,28.90
2018-08-20T07:31:16.629Z,29.30
2018-08-20T07:33:48.995Z,29.60
2018-08-20T07:36:21.493Z,29.50
2018-08-20T07:38:53.969Z,29.50
2018-08-20T07:41:26.182Z,29.60
2018-08-20T07:43:58.529Z,29.80
2018-08-20T07:46:30.896Z,30.20
2018-08-20T07:49:08.179Z,30.10
2018-08-20T07:51:40.802Z,30.10
2018-08-20T07:54:13.543Z,30.10
2018-08-20T07:56:45.987Z,30.40
2018-08-20T07:59:18.687Z,30.50
2018-08-20T08:01:51.789Z,30.30
2018-08-20T08:04:24.507Z,30.50
2018-08-20T08:06:57.357Z,30.90
2018-08-20T08:09:29.938Z,30.70
2018-08-20T08:12:02.886Z,31.20
2018-08-20T08:14:35.684Z,31.10
2018-08-20T08:17:08.645Z,30.80
2018-08-20T08:19:41.395Z,30.90
2018-08-20T08:22:13.814Z,31.20
2018-08-20T08:24:47.464Z,31.90
2018-08-20T08:27:19.649Z,32.50
2018-08-20T08:29:52.235Z,33.00
2018-08-20T08:32:24.924Z,32.30
2018-08-20T08:34:57.386Z,33.10
2018-08-20T08:37:29.838Z,33.20
2018-08-20T08:40:02.723Z,33.60
2018-08-20T08:42:35.348Z,33.70
2018-08-20T08:45:08.534Z,33.60
2018-08-20T08:47:40.850Z,33.70
2018-08-20T08:50:13.773Z,33.90
2018-08-20T08:52:46.918Z,34.40
2018-08-20T08:55:19.409Z,35.40
2018-08-20T08:57:51.620Z,35.40
2018-08-20T09:00:24.231Z,35.80
2018-08-20T09:02:56.513Z,35.70
2018-08-20T09:05:29.046Z,35.90
2018-08-20T09:08:01.694Z,35.90
2018-08-20T09:10:34.269Z,36.10
2018-08-20T09:13:07.504Z,35.90
2018-08-20T09:15:40.128Z,36.40
2018-08-20T09:18:12.595Z,36.70
2018-08-20T09:20:45.783Z,36.90
2018-08-20T09:23:18.478Z,37.00
2018-08-20T09:25:52.168Z,36.80
2018-08-20T09:28:24.643Z,36.90
2018-08-20T09:30:57.070Z,36.90
2018-08-20T09:33:29.693Z,38.50
2018-08-20T09:36:02.224Z,37.80
2018-08-20T09:38:34.889Z,38.00
2018-08-20T09:41:07.043Z,38.30
2018-08-20T09:43:39.759Z,38.60
2018-08-20T09:46:11.958Z,38.50
2018-08-20T09:48:44.299Z,38.10
2018-08-20T09:51:16.954Z,38.00
2018-08-20T09:53:50.058Z,38.50
2018-08-20T09:56:22.572Z,39.40
2018-08-20T09:58:55.070Z,39.60
2018-08-20T10:01:27.237Z,40.60
2018-08-20T10:03:59.880Z,40.40
2018-08-20T10:06:32.258Z,40.50
2018-08-20T10:09:05.760Z,41.20
2018-08-20T10:11:38.673Z,41.00
2018-08-20T10:14:10.957Z,41.50
2018-08-20T10:16:43.575Z,41.60
2018-08-20T10:19:16.331Z,41.50
2018-08-20T10:21:48.786Z,41.80
2018-08-20T10:24:21.119Z,42.00
2018-08-20T10:26:53.624Z,42.40
2018-08-20T10:29:26.033Z,42.10
2018-08-20T10:31:58.626Z,42.10
2018-08-20T10:34:31.444Z,42.20
2018-08-20T10:37:03.964Z,42.20
2018-08-20T10:39:36.364Z,42.80
2018-08-20T10:42:08.903Z,42.20
2018-08-20T10:44:46.134Z,42.00
2018-08-20T10:47:19.236Z,41.50
2018-08-20T10:49:51.845Z,41.70
2018-08-20T10:52:24.747Z,42.60
2018-08-20T10:54:57.242Z,42.30
2018-08-20T10:57:29.940Z,42.10
2018-08-20T11:00:02.296Z,43.40
2018-08-20T11:02:34.900Z,43.70
2018-08-20T11:05:07.702Z,44.90
2018-08-20T11:07:40.318Z,45.70
2018-08-20T11:10:12.756Z,46.30
2018-08-20T11:12:45.180Z,45.80
2018-08-20T11:15:17.594Z,46.40
2018-08-20T11:17:50.178Z,48.20
2018-08-20T11:20:22.380Z,47.20
2018-08-20T11:22:54.753Z,47.20
2018-08-20T11:25:27.146Z,47.70
2018-08-20T11:27:59.586Z,48.50
2018-08-20T11:30:32.169Z,49.00
2018-08-20T11:33:04.626Z,50.20
2018-08-20T11:35:37.043Z,51.00
2018-08-20T11:38:09.190Z,51.10
2018-08-20T11:40:41.429Z,51.40
2018-08-20T11:43:13.833Z,51.70
2018-08-20T11:45:46.953Z,51.00
2018-08-20T11:48:19.447Z,51.70
2018-08-20T11:50:51.708Z,51.70
2018-08-20T11:53:24.270Z,51.70
2018-08-20T11:55:56.648Z,51.70
2018-08-20T11:58:28.694Z,51.40
2018-08-20T12:01:01.308Z,52.00
2018-08-20T12:03:33.723Z,52.20
2018-08-20T12:06:07.249Z,52.10
2018-08-20T12:08:39.887Z,52.40
2018-08-20T12:11:12.266Z,53.00
2018-08-20T12:13:46.091Z,53.00
2018-08-20T12:16:18.536Z,52.90
2018-08-20T12:18:51.190Z,53.40
2018-08-20T12:21:23.435Z,53.00
2018-08-20T12:23:55.895Z,53.00
2018-08-20T12:26:28.361Z,52.60
2018-08-20T12:29:00.933Z,52.30
2018-08-20T12:31:33.445Z,52.30
2018-08-20T12:34:05.643Z,52.90
2018-08-20T12:36:38.914Z,52.70
2018-08-20T12:39:11.418Z,54.60
2018-08-20T12:41:43.844Z,54.10
2018-08-20T12:44:16.407Z,54.90
2018-08-20T12:46:48.932Z,55.60
2018-08-20T12:49:21.298Z,55.80
2018-08-20T12:51:53.988Z,55.50
2018-08-20T12:54:26.953Z,55.00
2018-08-20T12:56:59.689Z,55.50
2018-08-20T12:59:32.302Z,56.00
2018-08-20T13:02:04.841Z,56.40
2018-08-20T13:04:37.283Z,56.50
2018-08-20T13:07:09.648Z,56.10
2018-08-20T13:09:41.966Z,55.80
2018-08-20T13:12:15.192Z,55.80
2018-08-20T13:14:48.156Z,55.60
2018-08-20T13:17:20.805Z,55.60
2018-08-20T13:19:53.428Z,55.50
2018-08-20T13:22:26.809Z,55.60
2018-08-20T13:24:59.745Z,55.80
2018-08-20T13:27:32.063Z,56.50
2018-08-20T13:30:04.543Z,56.70
2018-08-20T13:32:36.928Z,56.60
2018-08-20T13:35:09.521Z,56.80
2018-08-20T13:37:42.542Z,57.10
2018-08-20T13:40:14.874Z,56.80
2018-08-20T13:42:47.192Z,57.50
2018-08-20T13:45:19.640Z,57.30
2018-08-20T13:47:52.415Z,57.50
2018-08-20T13:50:24.899Z,57.90
2018-08-20T13:55:37.127Z,58.50
2018-08-20T13:58:09.659Z,59.70
2018-08-20T14:00:42.015Z,59.60
2018-08-20T14:03:14.871Z,58.90
2018-08-20T14:05:47.397Z,59.10
2018-08-20T14:08:19.726Z,58.90
2018-08-20T14:10:52.044Z,58.50
2018-08-20T14:13:24.419Z,58.90
2018-08-20T14:15:56.935Z,59.20
2018-08-20T14:18:29.613Z,59.50
2018-08-20T14:21:12.721Z,59.30
2018-08-20T14:23:48.692Z,59.60
2018-08-20T14:26:21.029Z,59.50
2018-08-20T14:28:53.316Z,59.40
2018-08-20T14:31:26.588Z,59.40
2018-08-20T14:33:59.231Z,59.30
2018-08-20T14:36:31.937Z,59.40
2018-08-20T14:39:05.967Z,59.00
2018-08-20T14:41:38.445Z,59.10
2018-08-20T14:44:11.013Z,58.40
2018-08-20T14:46:43.312Z,58.10
2018-08-20T14:49:15.716Z,57.80
2018-08-20T14:51:48.342Z,57.50
2018-08-20T14:54:21.023Z,56.40
2018-08-20T14:56:53.130Z,55.40
2018-08-20T14:59:25.748Z,54.30
2018-08-20T15:01:58.909Z,54.10
2018-08-20T15:04:31.443Z,52.70
2018-08-20T15:07:11.052Z,52.40
2018-08-20T15:09:43.613Z,51.10
2018-08-20T15:12:16.102Z,51.10
2018-08-20T15:14:48.449Z,50.50
2018-08-20T15:17:20.838Z,48.50
2018-08-20T15:19:53.163Z,48.80
2018-08-20T15:22:25.701Z,48.10
2018-08-20T15:24:58.641Z,46.60
2018-08-20T15:27:31.087Z,45.80
2018-08-20T15:30:03.473Z,45.50
2018-08-20T15:32:35.976Z,44.50
2018-08-20T15:35:08.198Z,44.00
2018-08-20T15:37:40.848Z,42.40
2018-08-20T15:40:13.645Z,41.90
2018-08-20T15:42:46.139Z,42.40
2018-08-20T15:45:18.681Z,41.40
2018-08-20T15:47:51.170Z,41.00
2018-08-20T15:50:24.204Z,40.00
2018-08-20T15:52:57.261Z,39.00
2018-08-20T15:55:29.593Z,36.70
2018-08-20T15:58:02.203Z,37.10
2018-08-20T16:00:34.760Z,37.10
2018-08-20T16:03:07.460Z,36.40
2018-08-20T16:05:40.047Z,35.70
2018-08-20T16:08:12.705Z,35.00
2018-08-20T16:10:44.971Z,34.30
2018-08-20T16:13:19.091Z,34.70
2018-08-20T16:15:51.443Z,34.40
2018-08-20T16:18:24.260Z,34.40
2018-08-20T16:20:56.632Z,32.90
2018-08-20T16:23:29.354Z,32.20
2018-08-20T16:26:01.616Z,31.10
2018-08-20T16:28:34.151Z,29.60
2018-08-20T16:31:06.968Z,29.00
2018-08-20T16:33:39.539Z,28.60
2018-08-20T16:36:11.881Z,27.20
2018-08-20T16:38:44.320Z,27.10
2018-08-20T16:41:17.079Z,27.20
2018-08-20T16:43:49.314Z,27.20
2018-08-20T16:46:21.750Z,25.90
2018-08-20T16:48:54.091Z,25.50
2018-08-20T16:51:26.535Z,25.10
2018-08-20T16:53:58.699Z,23.90
2018-08-20T16:56:30.816Z,24.00
2018-08-20T16:59:03.066Z,22.70
2018-08-20T17:01:35.652Z,22.70
2018-08-20T17:04:13.219Z,21.10
2018-08-20T17:06:51.378Z,20.00
2018-08-20T17:09:23.790Z,20.40
2018-08-20T17:11:56.185Z,19.20
2018-08-20T17:14:28.446Z,18.70
2018-08-20T17:17:00.998Z,18.10
2018-08-20T17:19:33.438Z,17.30
2018-08-20T17:22:06.189Z,17.50
2018-08-20T17:24:39.384Z,17.50
2018-08-20T17:27:12.472Z,17.70
2018-08-20T17:29:45.149Z,16.90
2018-08-20T17:32:17.605Z,18.80
2018-08-20T17:34:50.287Z,17.80
2018-08-20T17:37:22.631Z,17.20
2018-08-20T17:40:06.274Z,19.00
2018-08-20T17:42:39.622Z,17.60
2018-08-20T17:45:12.795Z,18.80
2018-08-20T17:47:45.565Z,17.40
2018-08-20T17:50:30.618Z,17.30
2018-08-20T17:53:03.602Z,18.40
2018-08-20T17:55:35.768Z,17.60
2018-08-20T17:58:09.197Z,18.60
2018-08-20T18:00:45.982Z,18.60
2018-08-20T18:03:28.223Z,18.20
2018-08-20T18:06:05.380Z,19.10
2018-08-20T18:08:38.340Z,18.20
2018-08-20T18:11:10.824Z,18.20
2018-08-20T18:13:53.380Z,19.40
2018-08-20T18:16:25.638Z,19.30
2018-08-20T18:18:58.111Z,19.10
2018-08-20T18:21:30.965Z,17.60
2018-08-20T18:24:03.712Z,17.20
2018-08-20T18:26:41.943Z,18.50
2018-08-20T18:29:15.023Z,17.10
2018-08-20T18:31:47.935Z,17.30
2018-08-20T18:34:20.437Z,16.80
2018-08-20T18:36:53.613Z,18.10
2018-08-20T18:39:25.988Z,17.80
2018-08-20T18:42:01.112Z,17.30
2018-08-20T18:44:34.388Z,17.50
2018-08-20T18:47:06.899Z,17.80
2018-08-20T18:49:48.131Z,17.30
2018-08-20T18:52:20.585Z,16.80
2018-08-20T18:54:55.194Z,18.50
2018-08-20T18:57:30.555Z,18.50
2018-08-20T19:00:05.056Z,17.60
2018-08-20T19:02:40.293Z,17.20
2018-08-20T19:05:15.316Z,16.10
2018-08-20T19:07:48.199Z,15.50
2018-08-20T19:10:25.255Z,15.50
2018-08-20T19:12:57.749Z,14.00
2018-08-20T19:15:48.655Z,14.10
2018-08-20T19:18:29.305Z,13.20
2018-08-20T19:21:01.840Z,12.10
2018-08-20T19:30:24.892Z,14.00
2018-08-20T19:32:57.279Z,13.30
2018-08-20T19:35:29.585Z,12.70
2018-08-20T19:38:02.393Z,13.20
2018-08-20T19:40:34.721Z,11.70
2018-08-20T19:43:07.438Z,11.40
2018-08-20T19:45:44.729Z,10.90
2018-08-20T19:48:17.711Z,10.40
2018-08-20T19:50:50.193Z,10.30
2018-08-20T19:53:24.721Z,9.00
2018-08-20T19:55:57.882Z,8.70
2018-08-20T19:58:34.679Z,8.20
2018-08-20T20:01:17.675Z,8.70
2018-08-20T20:03:51.266Z,9.10
2018-08-20T20:06:23.701Z,9.60
2018-08-20T20:08:56.200Z,9.70
2018-08-20T20:11:30.346Z,9.50
2018-08-20T20:14:04.399Z,10.20
2018-08-20T20:16:42.775Z,10.40
2018-08-20T20:19:15.116Z,10.70
2018-08-20T20:21:47.317Z,10.90
2018-08-20T20:24:20.033Z,10.70
2018-08-20T20:26:52.397Z,11.20
2018-08-20T20:29:24.561Z,10.40
2018-08-20T20:31:57.230Z,10.80
2018-08-20T20:34:29.943Z,10.30
2018-08-20T20:37:02.446Z,10.20
2018-08-20T20:39:35.964Z,10.30
2018-08-20T20:42:08.494Z,10.70
2018-08-20T20:44:41.169Z,10.40
2018-08-20T20:47:13.413Z,9.90
2018-08-20T20:49:45.833Z,10.20
2018-08-20T20:52:18.293Z,9.50
2018-08-20T20:54:50.809Z,10.30
2018-08-20T20:57:23.233Z,9.80
2018-08-20T20:59:55.545Z,11.20
2018-08-20T21:02:27.996Z,10.40
2018-08-20T21:05:04.889Z,9.60
2018-08-20T21:07:37.569Z,9.10
2018-08-20T21:10:10.225Z,9.70
2018-08-20T21:12:42.606Z,10.20
2018-08-20T21:15:15.242Z,9.70
2018-08-20T21:17:47.599Z,9.40
2018-08-20T21:20:19.788Z,8.70
2018-08-20T21:22:52.426Z,8.20
2018-08-20T21:25:24.698Z,8.10
2018-08-20T21:27:57.210Z,8.10
2018-08-20T21:30:34.560Z,8.00
2018-08-20T21:33:06.747Z,7.40
2018-08-20T21:35:39.117Z,7.40
2018-08-20T21:38:11.969Z,7.40
2018-08-20T21:40:45.352Z,6.90
2018-08-20T21:43:17.541Z,5.70
2018-08-20T21:45:50.032Z,5.60
2018-08-20T21:48:22.496Z,6.60
2018-08-20T21:50:55.167Z,5.90
2018-08-20T21:53:34.193Z,6.80
2018-08-20T21:56:09.734Z,6.40
2018-08-20T21:58:43.384Z,5.70
2018-08-20T22:01:17.441Z,6.00
2018-08-20T22:03:50.013Z,6.40
2018-08-20T22:06:22.533Z,6.30
2018-08-20T22:08:54.719Z,5.60
2018-08-20T22:11:27.029Z,4.90
2018-08-20T22:13:59.251Z,4.90
2018-08-20T22:16:32.121Z,5.60
2018-08-20T22:19:05.209Z,4.80
2018-08-20T22:21:37.640Z,4.70
2018-08-20T22:24:10.021Z,4.80
2018-08-20T22:26:51.524Z,5.40
2018-08-20T22:29:24.349Z,5.20
2018-08-20T22:31:57.545Z,5.10
2018-08-20T22:34:30.954Z,5.50
2018-08-20T22:37:09.909Z,5.80
2018-08-20T22:39:42.864Z,5.80
2018-08-20T22:42:15.456Z,5.90
2018-08-20T22:44:48.095Z,5.90
2018-08-20T22:47:20.305Z,4.60
2018-08-20T22:49:52.749Z,5.20
2018-08-20T22:52:27.472Z,5.50
2018-08-20T22:55:00.249Z,5.30
2018-08-20T22:57:33.011Z,4.60
2018-08-20T23:00:13.556Z,4.10
2018-08-20T23:02:45.766Z,3.50
2018-08-20T23:05:18.038Z,3.70
2018-08-20T23:07:50.836Z,3.10
2018-08-20T23:10:23.601Z,2.80
2018-08-20T23:12:56.250Z,3.90
2018-08-20T23:15:28.635Z,3.30
2018-08-20T23:18:01.230Z,2.90
2018-08-20T23:20:34.001Z,3.70
2018-08-20T23:23:06.548Z,3.90
2018-08-20T23:25:38.995Z,3.70
2018-08-20T23:28:11.637Z,3.90
2018-08-20T23:30:49.493Z,3.00
2018-08-20T23:33:22.249Z,3.50
2018-08-20T23:35:55.104Z,4.10
2018-08-20T23:38:27.900Z,4.10
2018-08-20T23:41:01.036Z,4.00
2018-08-20T23:43:33.556Z,4.40
2018-08-20T23:46:06.504Z,4.40
2018-08-20T23:48:39.234Z,4.30
2018-08-20T23:51:11.465Z,4.50
2018-08-20T23:53:43.980Z,4.60
2018-08-20T23:56:16.051Z,5.10
2018-08-20T23:58:48.761Z,5.30
